LHBP/BUD METAR and TAF weather

Enter ICAO airport designator
Station Type Date Time Source
LHBP METAR 2022/06/30 00:30 UTC NOAA

LHBP 300030Z VRB02KT CAVOK 23/14 Q1012 NOSIG


Station Type Date Time Source
LHBP Decoded METAR 2022/06/30 00:30 UTC NOAA

Budapest / Ferihegy, Hungary (LHBP) 47-26N 019-16E 185M
Jun 29, 2022 - 08:30 PM EDT / 2022.06.30 0030 UTC
Wind: Variable at 2 MPH (2 KT):0
Visibility: greater than 7 mile(s):0
Temperature: 73 F (23 C)
Dew Point: 57 F (14 C)
Relative Humidity: 56%
Pressure (altimeter): 29.88 in. Hg (1012 hPa)
ob: LHBP 300030Z VRB02KT CAVOK 23/14 Q1012 NOSIG
cycle: 0

Station Type Date Time Source
LHBP TAF 2022/06/29 18:27 UTC NOAA

TAF TAF LHBP 291715Z 2918/3018 14011KT CAVOK
BECMG 2918/2920 11005KT
BECMG 3007/3010 16010KT
BECMG 3013/3016 24006KT

Example: see airport list